Time,TemperatureF,DewpointF,PressureIn,WindDirection,WindDirectionDegrees,WindSpeedMPH,WindSpeedGustMPH,Humidity,HourlyPrecipIn,Conditions,Clouds,dailyrainin,SoftwareType,DateUTC
2013-07-18 00:00:00,80.7,73.0,29.45,SW,222,0.0,1.0,76,0.00,,,0.00,weatherlink.com 1.10,2013-07-18 04:00:00,
2013-07-18 00:15:00,80.0,73.0,29.45,SW,222,0.0,1.0,78,0.00,,,0.00,weatherlink.com 1.10,2013-07-18 04:15:00,
2013-07-18 00:30:00,78.7,72.0,29.45,SW,223,0.0,1.0,80,0.00,,,0.00,weatherlink.com 1.10,2013-07-18 04:30:00,
2013-07-18 00:45:00,79.0,72.0,29.46,South,173,1.0,2.0,80,0.00,,,0.00,weatherlink.com 1.10,2013-07-18 04:45:00,
2013-07-18 01:00:00,79.0,72.0,29.46,SW,228,1.0,3.0,80,0.00,,,0.00,weatherlink.com 1.10,2013-07-18 05:00:00,
2013-07-18 01:15:00,78.8,73.0,29.45,West,267,2.0,3.0,81,0.00,,,0.00,weatherlink.com 1.10,2013-07-18 05:15:00,
2013-07-18 01:30:00,78.5,73.0,29.46,SW,225,1.0,2.0,82,0.00,,,0.00,weatherlink.com 1.10,2013-07-18 05:30:00,
2013-07-18 01:45:00,77.9,72.0,29.46,SW,224,1.0,3.0,83,0.00,,,0.00,weatherlink.com 1.10,2013-07-18 05:45:00,
2013-07-18 02:00:00,77.6,72.0,29.45,South,179,1.0,3.0,83,0.00,,,0.00,weatherlink.com 1.10,2013-07-18 06:00:00,
2013-07-18 02:15:00,77.2,72.0,29.45,SSW,201,0.0,3.0,84,0.00,,,0.00,weatherlink.com 1.10,2013-07-18 06:15:00,
2013-07-18 02:30:00,77.4,72.0,29.44,SW,236,1.0,5.0,84,0.00,,,0.00,weatherlink.com 1.10,2013-07-18 06:30:00,
2013-07-18 02:45:00,77.1,72.0,29.44,WSW,243,0.0,3.0,84,0.00,,,0.00,weatherlink.com 1.10,2013-07-18 06:45:00,
2013-07-18 03:00:00,76.6,72.0,29.43,SW,214,1.0,3.0,85,0.00,,,0.00,weatherlink.com 1.10,2013-07-18 07:00:00,
2013-07-18 03:15:00,76.4,72.0,29.43,SW,234,2.0,2.0,86,0.00,,,0.00,weatherlink.com 1.10,2013-07-18 07:15:00,
2013-07-18 03:30:00,76.0,72.0,29.43,SW,233,0.0,1.0,86,0.00,,,0.00,weatherlink.com 1.10,2013-07-18 07:30:00,
2013-07-18 03:45:00,75.4,71.0,29.43,SW,218,1.0,1.0,87,0.00,,,0.00,weatherlink.com 1.10,2013-07-18 07:45:00,
2013-07-18 04:00:00,75.6,72.0,29.42,SW,225,0.0,2.0,87,0.00,,,0.00,weatherlink.com 1.10,2013-07-18 08:00:00,
2013-07-18 04:15:00,75.3,71.0,29.42,South,176,1.0,2.0,87,0.00,,,0.00,weatherlink.com 1.10,2013-07-18 08:15:00,
2013-07-18 04:30:00,75.1,71.0,29.42,South,174,1.0,2.0,88,0.00,,,0.00,weatherlink.com 1.10,2013-07-18 08:30:00,
2013-07-18 04:45:00,74.8,71.0,29.42,South,176,0.0,2.0,88,0.00,,,0.00,weatherlink.com 1.10,2013-07-18 08:45:00,
2013-07-18 05:00:00,74.6,71.0,29.42,South,176,0.0,1.0,88,0.00,,,0.00,weatherlink.com 1.10,2013-07-18 09:00:00,
2013-07-18 05:15:00,74.3,71.0,29.42,South,181,2.0,2.0,89,0.00,,,0.00,weatherlink.com 1.10,2013-07-18 09:15:00,
2013-07-18 05:30:00,74.4,71.0,29.42,SSW,212,0.0,1.0,89,0.00,,,0.00,weatherlink.com 1.10,2013-07-18 09:30:00,
2013-07-18 05:45:00,73.9,71.0,29.42,SSW,212,0.0,1.0,89,0.00,,,0.00,weatherlink.com 1.10,2013-07-18 09:45:00,
2013-07-18 06:01:00,73.7,70.0,29.42,SW,221,0.0,2.0,89,0.00,,,0.00,weatherlink.com 1.10,2013-07-18 10:01:00,
2013-07-18 06:16:00,73.5,71.0,29.42,SW,221,0.0,1.0,90,0.00,,,0.00,weatherlink.com 1.10,2013-07-18 10:16:00,
2013-07-18 06:31:00,73.4,70.0,29.42,SW,221,0.0,1.0,90,0.00,,,0.00,weatherlink.com 1.10,2013-07-18 10:31:00,
2013-07-18 06:46:00,73.5,71.0,29.42,SW,219,0.0,2.0,90,0.00,,,0.00,weatherlink.com 1.10,2013-07-18 10:46:00,
2013-07-18 07:01:00,74.0,71.0,29.42,SW,219,2.0,4.0,90,0.00,,,0.00,weatherlink.com 1.10,2013-07-18 11:01:00,
2013-07-18 07:16:00,74.9,71.0,29.42,SSW,207,0.0,2.0,88,0.00,,,0.00,weatherlink.com 1.10,2013-07-18 11:16:00,
2013-07-18 07:31:00,75.7,72.0,29.42,SSW,212,3.0,4.0,87,0.00,,,0.00,weatherlink.com 1.10,2013-07-18 11:31:00,
2013-07-18 07:46:00,76.4,72.0,29.42,SW,226,3.0,5.0,86,0.00,,,0.00,weatherlink.com 1.10,2013-07-18 11:46:00,
2013-07-18 08:01:00,77.3,73.0,29.42,SW,223,2.0,5.0,85,0.00,,,0.00,weatherlink.com 1.10,2013-07-18 12:01:00,
2013-07-18 08:16:00,78.0,73.0,29.42,SW,235,0.0,4.0,84,0.00,,,0.00,weatherlink.com 1.10,2013-07-18 12:16:00,
2013-07-18 08:31:00,78.8,73.0,29.41,WSW,253,2.0,6.0,83,0.00,,,0.00,weatherlink.com 1.10,2013-07-18 12:31:00,
2013-07-18 08:46:00,79.9,74.0,29.41,WSW,256,1.0,5.0,82,0.00,,,0.00,weatherlink.com 1.10,2013-07-18 12:46:00,
2013-07-18 09:01:00,81.0,74.0,29.41,WSW,239,2.0,4.0,79,0.00,,,0.00,weatherlink.com 1.10,2013-07-18 13:01:00,
2013-07-18 09:16:00,82.5,75.0,29.41,SW,226,3.0,4.0,78,0.00,,,0.00,weatherlink.com 1.10,2013-07-18 13:16:00,
2013-07-18 09:31:00,84.3,76.0,29.40,West,273,1.0,4.0,75,0.00,,,0.00,weatherlink.com 1.10,2013-07-18 13:31:00,
2013-07-18 09:46:00,86.0,76.0,29.41,SSW,194,4.0,4.0,72,0.00,,,0.00,weatherlink.com 1.10,2013-07-18 13:46:00,
2013-07-18 10:01:00,86.2,75.0,29.40,SW,218,2.0,5.0,70,0.00,,,0.00,weatherlink.com 1.10,2013-07-18 14:01:00,
2013-07-18 10:16:00,87.6,75.0,29.40,SSW,201,1.0,5.0,67,0.00,,,0.00,weatherlink.com 1.10,2013-07-18 14:16:00,
2013-07-18 10:31:00,88.9,76.0,29.40,SSW,205,2.0,5.0,66,0.00,,,0.00,weatherlink.com 1.10,2013-07-18 14:31:00,
2013-07-18 10:46:00,89.9,76.0,29.40,NE,47,0.0,6.0,63,0.00,,,0.00,weatherlink.com 1.10,2013-07-18 14:46:00,
2013-07-18 11:01:00,91.5,75.0,29.40,WSW,250,4.0,5.0,59,0.00,,,0.00,weatherlink.com 1.10,2013-07-18 15:01:00,
2013-07-18 11:16:00,91.5,76.0,29.40,SSW,197,2.0,6.0,61,0.00,,,0.00,weatherlink.com 1.10,2013-07-18 15:16:00,
2013-07-18 11:31:00,93.2,75.0,29.40,SSW,205,5.0,6.0,56,0.00,,,0.00,weatherlink.com 1.10,2013-07-18 15:31:00,
2013-07-18 11:46:00,92.2,74.0,29.39,SSE,166,2.0,8.0,56,0.00,,,0.00,weatherlink.com 1.10,2013-07-18 15:46:00,
2013-07-18 12:01:00,92.6,74.0,29.38,South,179,4.0,10.0,54,0.00,,,0.00,weatherlink.com 1.10,2013-07-18 16:01:00,
2013-07-18 12:16:00,93.4,72.0,29.38,SW,222,2.0,9.0,50,0.00,,,0.00,weatherlink.com 1.10,2013-07-18 16:16:00,
2013-07-18 12:32:00,93.9,74.0,29.38,SW,218,6.0,10.0,52,0.00,,,0.00,weatherlink.com 1.10,2013-07-18 16:32:00,
2013-07-18 12:47:00,94.4,73.0,29.37,SW,223,3.0,6.0,50,0.00,,,0.00,weatherlink.com 1.10,2013-07-18 16:47:00,
2013-07-18 13:02:00,96.1,73.0,29.37,SW,224,4.0,10.0,48,0.00,,,0.00,weatherlink.com 1.10,2013-07-18 17:02:00,
2013-07-18 13:17:00,95.0,72.0,29.36,SW,232,7.0,12.0,48,0.00,,,0.00,weatherlink.com 1.10,2013-07-18 17:17:00,
2013-07-18 13:32:00,95.2,73.0,29.36,WSW,249,9.0,12.0,48,0.00,,,0.00,weatherlink.com 1.10,2013-07-18 17:32:00,
2013-07-18 13:47:00,95.7,74.0,29.35,East,83,1.0,11.0,49,0.00,,,0.00,weatherlink.com 1.10,2013-07-18 17:47:00,
2013-07-18 14:02:00,95.7,72.0,29.34,WSW,239,5.0,13.0,47,0.00,,,0.00,weatherlink.com 1.10,2013-07-18 18:02:00,
2013-07-18 14:17:00,96.1,72.0,29.33,SW,225,4.0,11.0,46,0.00,,,0.00,weatherlink.com 1.10,2013-07-18 18:17:00,
2013-07-18 14:32:00,95.5,72.0,29.33,WSW,251,5.0,11.0,47,0.00,,,0.00,weatherlink.com 1.10,2013-07-18 18:32:00,
2013-07-18 14:47:00,97.1,72.0,29.33,NW,321,5.0,11.0,44,0.00,,,0.00,weatherlink.com 1.10,2013-07-18 18:47:00,
2013-07-18 15:02:00,96.8,72.0,29.32,SSE,148,3.0,10.0,45,0.00,,,0.00,weatherlink.com 1.10,2013-07-18 19:02:00,
2013-07-18 15:17:00,96.2,71.0,29.32,WSW,255,7.0,18.0,44,0.00,,,0.00,weatherlink.com 1.10,2013-07-18 19:17:00,
2013-07-18 15:32:00,96.2,72.0,29.31,SW,233,4.0,17.0,45,0.00,,,0.00,weatherlink.com 1.10,2013-07-18 19:32:00,
2013-07-18 15:47:00,96.1,72.0,29.31,West,264,3.0,12.0,46,0.00,,,0.00,weatherlink.com 1.10,2013-07-18 19:47:00,
2013-07-18 16:02:00,96.6,73.0,29.31,SW,236,3.0,15.0,46,0.00,,,0.00,weatherlink.com 1.10,2013-07-18 20:02:00,
2013-07-18 16:17:00,95.8,71.0,29.30,SSW,201,7.0,12.0,45,0.00,,,0.00,weatherlink.com 1.10,2013-07-18 20:17:00,
2013-07-18 16:32:00,95.9,72.0,29.30,WSW,255,6.0,12.0,46,0.00,,,0.00,weatherlink.com 1.10,2013-07-18 20:32:00,
2013-07-18 16:47:00,96.3,72.0,29.29,WSW,239,4.0,14.0,45,0.00,,,0.00,weatherlink.com 1.10,2013-07-18 20:47:00,
2013-07-18 17:02:00,96.4,72.0,29.28,SW,215,2.0,12.0,45,0.00,,,0.00,weatherlink.com 1.10,2013-07-18 21:02:00,
2013-07-18 17:17:00,96.8,72.0,29.27,WSW,244,11.0,12.0,45,0.00,,,0.00,weatherlink.com 1.10,2013-07-18 21:17:00,
2013-07-18 17:32:00,96.4,72.0,29.27,SW,233,9.0,13.0,45,0.00,,,0.00,weatherlink.com 1.10,2013-07-18 21:32:00,
2013-07-18 17:47:00,95.7,72.0,29.26,SW,223,11.0,12.0,47,0.00,,,0.00,weatherlink.com 1.10,2013-07-18 21:47:00,
2013-07-18 18:02:00,95.6,72.0,29.25,SSW,204,8.0,11.0,47,0.00,,,0.00,weatherlink.com 1.10,2013-07-18 22:02:00,
2013-07-18 18:17:00,95.4,72.0,29.25,SSW,197,5.0,12.0,47,0.00,,,0.00,weatherlink.com 1.10,2013-07-18 22:17:00,
2013-07-18 18:32:00,94.3,71.0,29.24,WSW,238,5.0,13.0,47,0.00,,,0.00,weatherlink.com 1.10,2013-07-18 22:32:00,
2013-07-18 18:47:00,94.5,73.0,29.24,SW,219,2.0,9.0,49,0.00,,,0.00,weatherlink.com 1.10,2013-07-18 22:47:00,
2013-07-18 19:02:00,93.5,71.0,29.24,WSW,239,5.0,12.0,48,0.00,,,0.00,weatherlink.com 1.10,2013-07-18 23:02:00,
2013-07-18 19:17:00,92.8,71.0,29.24,WSW,239,2.0,10.0,49,0.00,,,0.00,weatherlink.com 1.10,2013-07-18 23:17:00,
2013-07-18 19:32:00,92.4,71.0,29.24,West,266,5.0,13.0,50,0.00,,,0.00,weatherlink.com 1.10,2013-07-18 23:32:00,
2013-07-18 19:47:00,92.0,72.0,29.23,WSW,245,3.0,8.0,52,0.00,,,0.00,weatherlink.com 1.10,2013-07-18 23:47:00,
2013-07-18 20:02:00,91.1,72.0,29.23,SW,229,3.0,8.0,54,0.00,,,0.00,weatherlink.com 1.10,2013-07-19 00:02:00,
2013-07-18 20:17:00,90.3,72.0,29.22,SSW,197,3.0,8.0,55,0.00,,,0.00,weatherlink.com 1.10,2013-07-19 00:17:00,
2013-07-18 20:32:00,89.4,72.0,29.22,SW,229,4.0,9.0,56,0.00,,,0.00,weatherlink.com 1.10,2013-07-19 00:32:00,
2013-07-18 20:47:00,88.3,71.0,29.21,WSW,245,4.0,9.0,57,0.00,,,0.00,weatherlink.com 1.10,2013-07-19 00:47:00,
2013-07-18 21:02:00,87.5,71.0,29.21,SW,214,3.0,8.0,58,0.00,,,0.00,weatherlink.com 1.10,2013-07-19 01:02:00,
2013-07-18 21:17:00,86.8,70.0,29.21,West,278,1.0,11.0,58,0.00,,,0.00,weatherlink.com 1.10,2013-07-19 01:17:00,
2013-07-18 21:32:00,86.4,70.0,29.22,WSW,239,5.0,9.0,58,0.00,,,0.00,weatherlink.com 1.10,2013-07-19 01:32:00,
2013-07-18 21:47:00,85.9,70.0,29.22,SW,232,6.0,7.0,59,0.00,,,0.00,weatherlink.com 1.10,2013-07-19 01:47:00,
2013-07-18 22:02:00,85.4,70.0,29.23,SSW,210,3.0,4.0,61,0.00,,,0.00,weatherlink.com 1.10,2013-07-19 02:02:00,
2013-07-18 22:17:00,84.7,71.0,29.23,SW,218,1.0,4.0,63,0.00,,,0.00,weatherlink.com 1.10,2013-07-19 02:17:00,
2013-07-18 22:33:00,84.4,71.0,29.23,South,186,4.0,5.0,64,0.00,,,0.00,weatherlink.com 1.10,2013-07-19 02:33:00,
2013-07-18 22:48:00,84.1,72.0,29.23,SSW,201,3.0,7.0,66,0.00,,,0.00,weatherlink.com 1.10,2013-07-19 02:48:00,
2013-07-18 23:03:00,83.7,72.0,29.23,SSW,207,4.0,7.0,67,0.00,,,0.00,weatherlink.com 1.10,2013-07-19 03:03:00,
2013-07-18 23:18:00,83.4,72.0,29.22,SSW,204,5.0,5.0,68,0.00,,,0.00,weatherlink.com 1.10,2013-07-19 03:18:00,
2013-07-18 23:33:00,83.0,72.0,29.22,SSW,200,1.0,7.0,70,0.00,,,0.00,weatherlink.com 1.10,2013-07-19 03:33:00,
2013-07-18 23:48:00,82.6,72.0,29.22,SSW,203,4.0,7.0,71,0.00,,,0.00,weatherlink.com 1.10,2013-07-19 03:48:00,